sensor_id;sensor_type;location;lat;lon;timestamp;temperature;humidity
20700;DHT22;10511;51.232;9.420;2022-12-28T00:00:06;3.60;99.90
20700;DHT22;10511;51.232;9.420;2022-12-28T00:02:33;3.60;99.90
20700;DHT22;10511;51.232;9.420;2022-12-28T00:05:00;3.60;99.90
20700;DHT22;10511;51.232;9.420;2022-12-28T00:07:27;3.60;99.90
20700;DHT22;10511;51.232;9.420;2022-12-28T00:09:54;3.60;99.90
20700;DHT22;10511;51.232;9.420;2022-12-28T00:12:21;3.60;99.90
20700;DHT22;10511;51.232;9.420;2022-12-28T00:14:49;3.60;99.90
20700;DHT22;10511;51.232;9.420;2022-12-28T00:17:16;3.60;99.90
20700;DHT22;10511;51.232;9.420;2022-12-28T00:19:43;3.60;99.90
20700;DHT22;10511;51.232;9.420;2022-12-28T00:22:09;3.60;99.90
20700;DHT22;10511;51.232;9.420;2022-12-28T00:24:36;3.60;99.90
20700;DHT22;10511;51.232;9.420;2022-12-28T00:27:03;3.60;99.90
20700;DHT22;10511;51.232;9.420;2022-12-28T00:29:30;3.70;99.90
20700;DHT22;10511;51.232;9.420;2022-12-28T00:31:58;3.70;99.90
20700;DHT22;10511;51.232;9.420;2022-12-28T00:34:25;3.80;99.90
20700;DHT22;10511;51.232;9.420;2022-12-28T00:36:52;3.80;99.90
20700;DHT22;10511;51.232;9.420;2022-12-28T00:39:19;3.90;99.90
20700;DHT22;10511;51.232;9.420;2022-12-28T00:41:46;3.90;99.90
20700;DHT22;10511;51.232;9.420;2022-12-28T00:44:13;3.90;99.90
20700;DHT22;10511;51.232;9.420;2022-12-28T00:46:40;4.00;99.90
20700;DHT22;10511;51.232;9.420;2022-12-28T00:49:08;4.00;99.90
20700;DHT22;10511;51.232;9.420;2022-12-28T00:51:35;4.00;99.90
20700;DHT22;10511;51.232;9.420;2022-12-28T00:54:02;4.00;99.90
20700;DHT22;10511;51.232;9.420;2022-12-28T00:56:29;4.10;99.90
20700;DHT22;10511;51.232;9.420;2022-12-28T00:58:58;4.10;99.90
20700;DHT22;10511;51.232;9.420;2022-12-28T01:01:26;4.10;99.90
20700;DHT22;10511;51.232;9.420;2022-12-28T01:03:54;4.10;99.90
20700;DHT22;10511;51.232;9.420;2022-12-28T01:06:23;4.10;99.90
20700;DHT22;10511;51.232;9.420;2022-12-28T01:08:50;4.10;99.90
20700;DHT22;10511;51.232;9.420;2022-12-28T01:11:19;4.10;99.90
20700;DHT22;10511;51.232;9.420;2022-12-28T01:13:47;4.10;99.90
20700;DHT22;10511;51.232;9.420;2022-12-28T01:16:16;4.20;99.90
20700;DHT22;10511;51.232;9.420;2022-12-28T01:18:45;4.20;99.90
20700;DHT22;10511;51.232;9.420;2022-12-28T01:21:14;4.20;99.90
20700;DHT22;10511;51.232;9.420;2022-12-28T01:23:43;4.20;99.90
20700;DHT22;10511;51.232;9.420;2022-12-28T01:26:10;4.30;99.90
20700;DHT22;10511;51.232;9.420;2022-12-28T01:28:37;4.20;99.90
20700;DHT22;10511;51.232;9.420;2022-12-28T01:31:05;4.30;99.90
20700;DHT22;10511;51.232;9.420;2022-12-28T01:33:32;4.30;99.90
20700;DHT22;10511;51.232;9.420;2022-12-28T01:36:05;4.30;99.90
20700;DHT22;10511;51.232;9.420;2022-12-28T01:38:31;4.30;99.90
20700;DHT22;10511;51.232;9.420;2022-12-28T01:41:00;4.30;99.90
20700;DHT22;10511;51.232;9.420;2022-12-28T01:43:39;4.30;99.90
20700;DHT22;10511;51.232;9.420;2022-12-28T01:46:08;4.30;99.90
20700;DHT22;10511;51.232;9.420;2022-12-28T01:48:36;4.30;99.90
20700;DHT22;10511;51.232;9.420;2022-12-28T01:51:06;4.30;99.90
20700;DHT22;10511;51.232;9.420;2022-12-28T01:53:33;4.30;99.90
20700;DHT22;10511;51.232;9.420;2022-12-28T01:56:02;4.30;99.90
20700;DHT22;10511;51.232;9.420;2022-12-28T01:58:31;4.30;99.90
20700;DHT22;10511;51.232;9.420;2022-12-28T02:00:58;4.30;99.90
20700;DHT22;10511;51.232;9.420;2022-12-28T02:03:27;4.30;99.90
20700;DHT22;10511;51.232;9.420;2022-12-28T02:05:56;4.30;99.90
20700;DHT22;10511;51.232;9.420;2022-12-28T02:08:27;4.30;99.90
20700;DHT22;10511;51.232;9.420;2022-12-28T02:10:55;4.30;99.90
20700;DHT22;10511;51.232;9.420;2022-12-28T02:13:24;4.30;99.90
20700;DHT22;10511;51.232;9.420;2022-12-28T02:15:51;4.30;99.90
20700;DHT22;10511;51.232;9.420;2022-12-28T02:18:19;4.30;99.90
20700;DHT22;10511;51.232;9.420;2022-12-28T02:21:15;4.30;99.90
20700;DHT22;10511;51.232;9.420;2022-12-28T02:26:59;4.30;99.90
20700;DHT22;10511;51.232;9.420;2022-12-28T02:29:52;4.30;99.90
20700;DHT22;10511;51.232;9.420;2022-12-28T02:32:38;4.30;99.90
20700;DHT22;10511;51.232;9.420;2022-12-28T02:35:08;4.30;99.90
20700;DHT22;10511;51.232;9.420;2022-12-28T02:37:43;4.30;99.90
20700;DHT22;10511;51.232;9.420;2022-12-28T02:40:15;4.30;99.90
20700;DHT22;10511;51.232;9.420;2022-12-28T02:42:44;4.30;99.90
20700;DHT22;10511;51.232;9.420;2022-12-28T02:48:08;4.30;99.90
20700;DHT22;10511;51.232;9.420;2022-12-28T02:51:28;4.30;99.90
20700;DHT22;10511;51.232;9.420;2022-12-28T02:54:20;4.30;99.90
20700;DHT22;10511;51.232;9.420;2022-12-28T02:57:23;4.30;99.90
20700;DHT22;10511;51.232;9.420;2022-12-28T03:00:02;4.30;99.90
20700;DHT22;10511;51.232;9.420;2022-12-28T03:02:44;4.30;99.90
20700;DHT22;10511;51.232;9.420;2022-12-28T03:05:23;4.30;99.90
20700;DHT22;10511;51.232;9.420;2022-12-28T03:08:15;4.30;99.90
20700;DHT22;10511;51.232;9.420;2022-12-28T03:10:50;4.30;99.90
20700;DHT22;10511;51.232;9.420;2022-12-28T03:13:21;4.30;99.90
20700;DHT22;10511;51.232;9.420;2022-12-28T03:16:09;4.30;99.90
20700;DHT22;10511;51.232;9.420;2022-12-28T03:18:39;4.30;99.90
20700;DHT22;10511;51.232;9.420;2022-12-28T03:21:29;4.30;99.90
20700;DHT22;10511;51.232;9.420;2022-12-28T03:24:16;4.30;99.90
20700;DHT22;10511;51.232;9.420;2022-12-28T03:27:02;4.30;99.90
20700;DHT22;10511;51.232;9.420;2022-12-28T03:29:53;4.30;99.90
20700;DHT22;10511;51.232;9.420;2022-12-28T03:32:38;4.30;99.90
20700;DHT22;10511;51.232;9.420;2022-12-28T03:35:06;4.30;99.90
20700;DHT22;10511;51.232;9.420;2022-12-28T03:37:39;4.30;99.90
20700;DHT22;10511;51.232;9.420;2022-12-28T03:40:13;4.30;99.90
20700;DHT22;10511;51.232;9.420;2022-12-28T03:42:44;4.30;99.90
20700;DHT22;10511;51.232;9.420;2022-12-28T03:45:33;4.30;99.90
20700;DHT22;10511;51.232;9.420;2022-12-28T03:48:01;4.30;99.90
20700;DHT22;10511;51.232;9.420;2022-12-28T03:50:30;4.30;99.90
20700;DHT22;10511;51.232;9.420;2022-12-28T03:53:02;4.30;99.90
20700;DHT22;10511;51.232;9.420;2022-12-28T03:55:29;4.30;99.90
20700;DHT22;10511;51.232;9.420;2022-12-28T03:57:56;4.30;99.90
20700;DHT22;10511;51.232;9.420;2022-12-28T04:00:23;4.30;99.90
20700;DHT22;10511;51.232;9.420;2022-12-28T04:02:49;4.30;99.90
20700;DHT22;10511;51.232;9.420;2022-12-28T04:05:16;4.40;99.90
20700;DHT22;10511;51.232;9.420;2022-12-28T04:07:43;4.40;99.90
20700;DHT22;10511;51.232;9.420;2022-12-28T04:10:12;4.40;99.90
20700;DHT22;10511;51.232;9.420;2022-12-28T04:12:38;4.40;99.90
20700;DHT22;10511;51.232;9.420;2022-12-28T04:15:06;4.40;99.90
20700;DHT22;10511;51.232;9.420;2022-12-28T04:17:33;4.40;99.90
20700;DHT22;10511;51.232;9.420;2022-12-28T04:20:00;4.40;99.90
20700;DHT22;10511;51.232;9.420;2022-12-28T04:22:27;4.40;99.90
20700;DHT22;10511;51.232;9.420;2022-12-28T04:24:54;4.40;99.90
20700;DHT22;10511;51.232;9.420;2022-12-28T04:27:22;4.40;99.90
20700;DHT22;10511;51.232;9.420;2022-12-28T04:29:49;4.40;99.90
20700;DHT22;10511;51.232;9.420;2022-12-28T04:32:16;4.40;99.90
20700;DHT22;10511;51.232;9.420;2022-12-28T04:34:43;4.40;99.90
20700;DHT22;10511;51.232;9.420;2022-12-28T04:37:10;4.40;99.90
20700;DHT22;10511;51.232;9.420;2022-12-28T04:39:36;4.40;99.90
20700;DHT22;10511;51.232;9.420;2022-12-28T04:42:03;4.40;99.90
20700;DHT22;10511;51.232;9.420;2022-12-28T04:44:32;4.50;99.90
20700;DHT22;10511;51.232;9.420;2022-12-28T04:46:59;4.40;99.90
20700;DHT22;10511;51.232;9.420;2022-12-28T04:49:25;4.40;99.90
20700;DHT22;10511;51.232;9.420;2022-12-28T04:51:52;4.40;99.90
20700;DHT22;10511;51.232;9.420;2022-12-28T04:54:19;4.40;99.90
20700;DHT22;10511;51.232;9.420;2022-12-28T04:56:46;4.40;99.90
20700;DHT22;10511;51.232;9.420;2022-12-28T04:59:13;4.40;99.90
20700;DHT22;10511;51.232;9.420;2022-12-28T05:01:41;4.40;99.90
20700;DHT22;10511;51.232;9.420;2022-12-28T05:04:08;4.40;99.90
20700;DHT22;10511;51.232;9.420;2022-12-28T05:06:35;4.40;99.90
20700;DHT22;10511;51.232;9.420;2022-12-28T05:09:02;4.50;99.90
20700;DHT22;10511;51.232;9.420;2022-12-28T05:11:29;4.40;99.90
20700;DHT22;10511;51.232;9.420;2022-12-28T05:13:56;4.40;99.90
20700;DHT22;10511;51.232;9.420;2022-12-28T05:16:25;4.40;99.90
20700;DHT22;10511;51.232;9.420;2022-12-28T05:18:54;4.40;99.90
20700;DHT22;10511;51.232;9.420;2022-12-28T05:21:22;4.50;99.90
20700;DHT22;10511;51.232;9.420;2022-12-28T05:23:50;4.40;99.90
20700;DHT22;10511;51.232;9.420;2022-12-28T05:26:19;4.40;99.90
20700;DHT22;10511;51.232;9.420;2022-12-28T05:28:46;4.50;99.90
20700;DHT22;10511;51.232;9.420;2022-12-28T05:31:14;4.50;99.90
20700;DHT22;10511;51.232;9.420;2022-12-28T05:33:42;4.50;99.90
20700;DHT22;10511;51.232;9.420;2022-12-28T05:36:12;4.50;99.90
20700;DHT22;10511;51.232;9.420;2022-12-28T05:38:40;4.50;99.90
20700;DHT22;10511;51.232;9.420;2022-12-28T05:41:08;4.50;99.90
20700;DHT22;10511;51.232;9.420;2022-12-28T05:43:35;4.60;99.90
20700;DHT22;10511;51.232;9.420;2022-12-28T05:46:04;4.60;99.90
20700;DHT22;10511;51.232;9.420;2022-12-28T05:48:33;4.60;99.90
20700;DHT22;10511;51.232;9.420;2022-12-28T05:51:01;4.60;99.90
20700;DHT22;10511;51.232;9.420;2022-12-28T05:53:30;4.60;99.90
20700;DHT22;10511;51.232;9.420;2022-12-28T05:56:02;4.60;99.90
20700;DHT22;10511;51.232;9.420;2022-12-28T05:58:29;4.70;99.90
20700;DHT22;10511;51.232;9.420;2022-12-28T06:01:05;4.70;99.90
20700;DHT22;10511;51.232;9.420;2022-12-28T06:03:32;4.70;99.90
20700;DHT22;10511;51.232;9.420;2022-12-28T06:06:03;4.70;99.90
20700;DHT22;10511;51.232;9.420;2022-12-28T06:08:32;4.70;99.90
20700;DHT22;10511;51.232;9.420;2022-12-28T06:11:00;4.70;99.90
20700;DHT22;10511;51.232;9.420;2022-12-28T06:13:28;4.70;99.90
20700;DHT22;10511;51.232;9.420;2022-12-28T06:15:56;4.80;99.90
20700;DHT22;10511;51.232;9.420;2022-12-28T06:18:23;4.80;99.90
20700;DHT22;10511;51.232;9.420;2022-12-28T06:20:50;4.90;99.90
20700;DHT22;10511;51.232;9.420;2022-12-28T06:23:17;4.90;99.90
20700;DHT22;10511;51.232;9.420;2022-12-28T06:25:45;4.90;99.90
20700;DHT22;10511;51.232;9.420;2022-12-28T06:28:12;4.90;99.90
20700;DHT22;10511;51.232;9.420;2022-12-28T06:30:39;4.90;99.90
20700;DHT22;10511;51.232;9.420;2022-12-28T06:33:06;4.90;99.90
20700;DHT22;10511;51.232;9.420;2022-12-28T06:35:33;5.00;99.90
20700;DHT22;10511;51.232;9.420;2022-12-28T06:38:00;5.00;99.90
20700;DHT22;10511;51.232;9.420;2022-12-28T06:40:26;5.00;99.90
20700;DHT22;10511;51.232;9.420;2022-12-28T06:43:00;5.00;99.90
20700;DHT22;10511;51.232;9.420;2022-12-28T06:45:30;5.10;99.90
20700;DHT22;10511;51.232;9.420;2022-12-28T06:47:57;5.00;99.90
20700;DHT22;10511;51.232;9.420;2022-12-28T06:50:24;5.10;99.90
20700;DHT22;10511;51.232;9.420;2022-12-28T06:52:51;5.10;99.90
20700;DHT22;10511;51.232;9.420;2022-12-28T06:55:18;5.10;99.90
20700;DHT22;10511;51.232;9.420;2022-12-28T06:57:45;5.10;99.90
20700;DHT22;10511;51.232;9.420;2022-12-28T07:00:14;5.10;99.90
20700;DHT22;10511;51.232;9.420;2022-12-28T07:02:41;5.10;99.90
20700;DHT22;10511;51.232;9.420;2022-12-28T07:05:08;5.10;99.90
20700;DHT22;10511;51.232;9.420;2022-12-28T07:07:35;5.10;99.90
20700;DHT22;10511;51.232;9.420;2022-12-28T07:10:01;5.20;99.90
20700;DHT22;10511;51.232;9.420;2022-12-28T07:12:28;5.20;99.90
20700;DHT22;10511;51.232;9.420;2022-12-28T07:14:55;5.20;99.90
20700;DHT22;10511;51.232;9.420;2022-12-28T07:17:23;5.20;99.90
20700;DHT22;10511;51.232;9.420;2022-12-28T07:19:50;5.20;99.90
20700;DHT22;10511;51.232;9.420;2022-12-28T07:22:17;5.20;99.90
20700;DHT22;10511;51.232;9.420;2022-12-28T07:24:44;5.20;99.90
20700;DHT22;10511;51.232;9.420;2022-12-28T07:27:11;5.20;99.90
20700;DHT22;10511;51.232;9.420;2022-12-28T07:29:38;5.20;99.90
20700;DHT22;10511;51.232;9.420;2022-12-28T07:32:06;5.20;99.90
20700;DHT22;10511;51.232;9.420;2022-12-28T07:34:34;5.20;99.90
20700;DHT22;10511;51.232;9.420;2022-12-28T07:37:01;5.20;99.90
20700;DHT22;10511;51.232;9.420;2022-12-28T07:39:28;5.20;99.90
20700;DHT22;10511;51.232;9.420;2022-12-28T07:41:55;5.20;99.90
20700;DHT22;10511;51.232;9.420;2022-12-28T07:44:22;5.30;99.90
20700;DHT22;10511;51.232;9.420;2022-12-28T07:46:48;5.30;99.90
20700;DHT22;10511;51.232;9.420;2022-12-28T07:49:15;5.20;99.90
20700;DHT22;10511;51.232;9.420;2022-12-28T07:51:43;5.20;99.90
20700;DHT22;10511;51.232;9.420;2022-12-28T07:54:11;5.30;99.90
20700;DHT22;10511;51.232;9.420;2022-12-28T07:56:37;5.30;99.90
20700;DHT22;10511;51.232;9.420;2022-12-28T07:59:05;5.30;99.90
20700;DHT22;10511;51.232;9.420;2022-12-28T08:01:34;5.30;99.90
20700;DHT22;10511;51.232;9.420;2022-12-28T08:04:03;5.30;99.90
20700;DHT22;10511;51.232;9.420;2022-12-28T08:06:33;5.30;99.90
20700;DHT22;10511;51.232;9.420;2022-12-28T08:09:02;5.30;99.90
20700;DHT22;10511;51.232;9.420;2022-12-28T08:11:32;5.30;99.90
20700;DHT22;10511;51.232;9.420;2022-12-28T08:14:00;5.40;99.90
20700;DHT22;10511;51.232;9.420;2022-12-28T08:16:29;5.30;99.90
20700;DHT22;10511;51.232;9.420;2022-12-28T08:18:56;5.40;99.90
20700;DHT22;10511;51.232;9.420;2022-12-28T08:21:25;5.40;99.90
20700;DHT22;10511;51.232;9.420;2022-12-28T08:23:52;5.40;99.90
20700;DHT22;10511;51.232;9.420;2022-12-28T08:26:23;5.40;99.90
20700;DHT22;10511;51.232;9.420;2022-12-28T08:28:53;5.40;99.90
20700;DHT22;10511;51.232;9.420;2022-12-28T08:31:21;5.40;99.90
20700;DHT22;10511;51.232;9.420;2022-12-28T08:33:49;5.40;99.90
20700;DHT22;10511;51.232;9.420;2022-12-28T08:36:16;5.40;99.90
20700;DHT22;10511;51.232;9.420;2022-12-28T08:38:44;5.50;99.90
20700;DHT22;10511;51.232;9.420;2022-12-28T08:41:13;5.50;99.90
20700;DHT22;10511;51.232;9.420;2022-12-28T08:43:43;5.50;99.90
20700;DHT22;10511;51.232;9.420;2022-12-28T08:46:12;5.50;99.90
20700;DHT22;10511;51.232;9.420;2022-12-28T08:48:39;5.50;99.90
20700;DHT22;10511;51.232;9.420;2022-12-28T08:51:09;5.50;99.90
20700;DHT22;10511;51.232;9.420;2022-12-28T08:53:36;5.50;99.90
20700;DHT22;10511;51.232;9.420;2022-12-28T08:56:05;5.50;99.90
20700;DHT22;10511;51.232;9.420;2022-12-28T08:58:33;5.50;99.90
20700;DHT22;10511;51.232;9.420;2022-12-28T09:01:08;5.60;99.90
20700;DHT22;10511;51.232;9.420;2022-12-28T09:03:36;5.60;99.90
20700;DHT22;10511;51.232;9.420;2022-12-28T09:06:05;5.60;99.90
20700;DHT22;10511;51.232;9.420;2022-12-28T09:08:33;5.60;99.90
20700;DHT22;10511;51.232;9.420;2022-12-28T09:11:00;5.60;99.90
20700;DHT22;10511;51.232;9.420;2022-12-28T09:13:27;5.60;99.90
20700;DHT22;10511;51.232;9.420;2022-12-28T09:15:56;5.70;99.90
20700;DHT22;10511;51.232;9.420;2022-12-28T09:18:24;5.70;99.90
20700;DHT22;10511;51.232;9.420;2022-12-28T09:20:51;5.70;99.90
20700;DHT22;10511;51.232;9.420;2022-12-28T09:23:18;5.70;99.90
20700;DHT22;10511;51.232;9.420;2022-12-28T09:25:46;5.70;99.90
20700;DHT22;10511;51.232;9.420;2022-12-28T09:28:13;5.70;99.90
20700;DHT22;10511;51.232;9.420;2022-12-28T09:30:40;5.80;99.90
20700;DHT22;10511;51.232;9.420;2022-12-28T09:33:07;5.80;99.90
20700;DHT22;10511;51.232;9.420;2022-12-28T09:35:56;5.80;99.90
20700;DHT22;10511;51.232;9.420;2022-12-28T09:38:23;5.80;99.90
20700;DHT22;10511;51.232;9.420;2022-12-28T09:40:50;5.80;99.90
20700;DHT22;10511;51.232;9.420;2022-12-28T09:43:17;5.90;99.90
20700;DHT22;10511;51.232;9.420;2022-12-28T09:45:45;5.90;99.90
20700;DHT22;10511;51.232;9.420;2022-12-28T09:48:16;5.90;99.90
20700;DHT22;10511;51.232;9.420;2022-12-28T09:50:46;5.90;99.90
20700;DHT22;10511;51.232;9.420;2022-12-28T09:53:33;5.90;99.90
20700;DHT22;10511;51.232;9.420;2022-12-28T09:56:04;5.90;99.90
20700;DHT22;10511;51.232;9.420;2022-12-28T09:58:33;6.00;99.90
20700;DHT22;10511;51.232;9.420;2022-12-28T10:01:03;6.00;99.90
20700;DHT22;10511;51.232;9.420;2022-12-28T10:03:34;6.00;99.90
20700;DHT22;10511;51.232;9.420;2022-12-28T10:06:02;6.00;99.90
20700;DHT22;10511;51.232;9.420;2022-12-28T10:08:36;6.10;99.90
20700;DHT22;10511;51.232;9.420;2022-12-28T10:11:04;6.10;99.90
20700;DHT22;10511;51.232;9.420;2022-12-28T10:13:35;6.10;99.90
20700;DHT22;10511;51.232;9.420;2022-12-28T10:16:04;6.10;99.90
20700;DHT22;10511;51.232;9.420;2022-12-28T10:18:32;6.10;99.90
20700;DHT22;10511;51.232;9.420;2022-12-28T10:20:59;6.20;99.90
20700;DHT22;10511;51.232;9.420;2022-12-28T10:23:29;6.20;99.90
20700;DHT22;10511;51.232;9.420;2022-12-28T10:25:59;6.20;99.90
20700;DHT22;10511;51.232;9.420;2022-12-28T10:28:32;6.20;99.90
20700;DHT22;10511;51.232;9.420;2022-12-28T10:31:03;6.30;99.90
20700;DHT22;10511;51.232;9.420;2022-12-28T10:33:30;6.30;99.90
20700;DHT22;10511;51.232;9.420;2022-12-28T10:35:58;6.40;99.90
20700;DHT22;10511;51.232;9.420;2022-12-28T10:38:28;6.40;99.90
20700;DHT22;10511;51.232;9.420;2022-12-28T10:40:59;6.40;99.90
20700;DHT22;10511;51.232;9.420;2022-12-28T10:43:28;6.40;99.90
20700;DHT22;10511;51.232;9.420;2022-12-28T10:45:57;6.40;99.90
20700;DHT22;10511;51.232;9.420;2022-12-28T10:48:29;6.50;99.90
20700;DHT22;10511;51.232;9.420;2022-12-28T10:51:00;6.50;99.90
20700;DHT22;10511;51.232;9.420;2022-12-28T10:53:41;6.60;99.90
20700;DHT22;10511;51.232;9.420;2022-12-28T10:56:19;6.60;99.90
20700;DHT22;10511;51.232;9.420;2022-12-28T10:58:48;6.60;99.90
20700;DHT22;10511;51.232;9.420;2022-12-28T11:01:18;6.60;99.90
20700;DHT22;10511;51.232;9.420;2022-12-28T11:03:57;6.70;99.90
20700;DHT22;10511;51.232;9.420;2022-12-28T11:06:28;6.70;99.90
20700;DHT22;10511;51.232;9.420;2022-12-28T11:09:04;6.70;99.90
20700;DHT22;10511;51.232;9.420;2022-12-28T11:11:33;6.80;99.90
20700;DHT22;10511;51.232;9.420;2022-12-28T11:14:03;6.80;99.90
20700;DHT22;10511;51.232;9.420;2022-12-28T11:16:35;6.80;99.90
20700;DHT22;10511;51.232;9.420;2022-12-28T11:19:02;6.80;99.90
20700;DHT22;10511;51.232;9.420;2022-12-28T11:21:30;6.80;99.90
20700;DHT22;10511;51.232;9.420;2022-12-28T11:23:59;6.90;99.90
20700;DHT22;10511;51.232;9.420;2022-12-28T11:26:27;6.90;99.90
20700;DHT22;10511;51.232;9.420;2022-12-28T11:28:56;6.90;99.90
20700;DHT22;10511;51.232;9.420;2022-12-28T11:31:26;6.90;99.90
20700;DHT22;10511;51.232;9.420;2022-12-28T11:33:57;6.90;99.90
20700;DHT22;10511;51.232;9.420;2022-12-28T11:36:30;6.90;99.90
20700;DHT22;10511;51.232;9.420;2022-12-28T11:38:57;6.90;99.90
20700;DHT22;10511;51.232;9.420;2022-12-28T11:41:41;6.90;99.90
20700;DHT22;10511;51.232;9.420;2022-12-28T11:44:21;6.80;99.90
20700;DHT22;10511;51.232;9.420;2022-12-28T11:47:18;6.80;99.90
20700;DHT22;10511;51.232;9.420;2022-12-28T11:49:47;6.90;99.90
20700;DHT22;10511;51.232;9.420;2022-12-28T11:52:44;6.90;99.90
20700;DHT22;10511;51.232;9.420;2022-12-28T11:55:35;6.90;99.90
20700;DHT22;10511;51.232;9.420;2022-12-28T11:58:42;6.90;99.90
20700;DHT22;10511;51.232;9.420;2022-12-28T12:01:44;6.90;99.90
20700;DHT22;10511;51.232;9.420;2022-12-28T12:07:25;6.90;99.90
20700;DHT22;10511;51.232;9.420;2022-12-28T12:12:59;7.00;99.90
20700;DHT22;10511;51.232;9.420;2022-12-28T12:15:38;7.00;99.90
20700;DHT22;10511;51.232;9.420;2022-12-28T12:18:16;7.00;99.90
20700;DHT22;10511;51.232;9.420;2022-12-28T12:20:52;7.00;99.90
20700;DHT22;10511;51.232;9.420;2022-12-28T12:23:31;7.00;99.90
20700;DHT22;10511;51.232;9.420;2022-12-28T12:26:11;7.00;99.90
20700;DHT22;10511;51.232;9.420;2022-12-28T12:28:44;7.10;99.90
20700;DHT22;10511;51.232;9.420;2022-12-28T12:31:17;7.10;99.90
20700;DHT22;10511;51.232;9.420;2022-12-28T12:33:49;7.10;99.90
20700;DHT22;10511;51.232;9.420;2022-12-28T12:36:31;7.20;99.90
20700;DHT22;10511;51.232;9.420;2022-12-28T12:41:57;7.20;99.90
20700;DHT22;10511;51.232;9.420;2022-12-28T12:44:29;7.30;99.90
20700;DHT22;10511;51.232;9.420;2022-12-28T12:47:19;7.30;99.90
20700;DHT22;10511;51.232;9.420;2022-12-28T12:50:12;7.40;99.90
20700;DHT22;10511;51.232;9.420;2022-12-28T12:52:52;7.40;99.90
20700;DHT22;10511;51.232;9.420;2022-12-28T12:55:34;7.50;99.90
20700;DHT22;10511;51.232;9.420;2022-12-28T12:58:07;7.60;99.90
20700;DHT22;10511;51.232;9.420;2022-12-28T13:00:44;7.60;99.90
20700;DHT22;10511;51.232;9.420;2022-12-28T13:03:22;7.60;99.90
20700;DHT22;10511;51.232;9.420;2022-12-28T13:05:56;7.70;99.90
20700;DHT22;10511;51.232;9.420;2022-12-28T13:08:26;7.70;99.90
20700;DHT22;10511;51.232;9.420;2022-12-28T13:10:59;7.70;99.90
20700;DHT22;10511;51.232;9.420;2022-12-28T13:13:30;7.70;99.90
20700;DHT22;10511;51.232;9.420;2022-12-28T13:16:00;7.80;99.90
20700;DHT22;10511;51.232;9.420;2022-12-28T13:18:28;7.80;99.90
20700;DHT22;10511;51.232;9.420;2022-12-28T13:20:59;7.70;99.90
20700;DHT22;10511;51.232;9.420;2022-12-28T13:23:28;7.80;99.90
20700;DHT22;10511;51.232;9.420;2022-12-28T13:25:57;7.70;99.90
20700;DHT22;10511;51.232;9.420;2022-12-28T13:28:28;7.70;99.90
20700;DHT22;10511;51.232;9.420;2022-12-28T13:31:05;7.70;99.90
20700;DHT22;10511;51.232;9.420;2022-12-28T13:33:33;7.70;99.90
20700;DHT22;10511;51.232;9.420;2022-12-28T13:36:16;7.70;99.90
20700;DHT22;10511;51.232;9.420;2022-12-28T13:38:44;7.70;99.90
20700;DHT22;10511;51.232;9.420;2022-12-28T13:41:20;7.70;99.90
20700;DHT22;10511;51.232;9.420;2022-12-28T13:44:13;7.70;99.90
20700;DHT22;10511;51.232;9.420;2022-12-28T13:46:44;7.60;99.90
20700;DHT22;10511;51.232;9.420;2022-12-28T13:49:16;7.60;99.90
20700;DHT22;10511;51.232;9.420;2022-12-28T13:51:45;7.70;99.90
20700;DHT22;10511;51.232;9.420;2022-12-28T13:54:12;7.60;99.90
20700;DHT22;10511;51.232;9.420;2022-12-28T13:56:41;7.70;99.90
20700;DHT22;10511;51.232;9.420;2022-12-28T13:59:12;7.60;99.90
20700;DHT22;10511;51.232;9.420;2022-12-28T14:01:43;7.60;99.90
20700;DHT22;10511;51.232;9.420;2022-12-28T14:04:15;7.60;99.90
20700;DHT22;10511;51.232;9.420;2022-12-28T14:06:45;7.60;99.90
20700;DHT22;10511;51.232;9.420;2022-12-28T14:09:14;7.60;99.90
20700;DHT22;10511;51.232;9.420;2022-12-28T14:11:42;7.60;99.90
20700;DHT22;10511;51.232;9.420;2022-12-28T14:14:11;7.60;99.90
20700;DHT22;10511;51.232;9.420;2022-12-28T14:16:39;7.50;99.90
20700;DHT22;10511;51.232;9.420;2022-12-28T14:19:07;7.50;99.90
20700;DHT22;10511;51.232;9.420;2022-12-28T14:21:35;7.50;99.90
20700;DHT22;10511;51.232;9.420;2022-12-28T14:24:06;7.50;99.90
20700;DHT22;10511;51.232;9.420;2022-12-28T14:26:33;7.50;99.90
20700;DHT22;10511;51.232;9.420;2022-12-28T14:29:00;7.60;99.90
20700;DHT22;10511;51.232;9.420;2022-12-28T14:31:29;7.50;99.90
20700;DHT22;10511;51.232;9.420;2022-12-28T14:33:58;7.50;99.90
20700;DHT22;10511;51.232;9.420;2022-12-28T14:36:29;7.50;99.90
20700;DHT22;10511;51.232;9.420;2022-12-28T14:38:58;7.50;99.90
20700;DHT22;10511;51.232;9.420;2022-12-28T14:41:31;7.60;99.90
20700;DHT22;10511;51.232;9.420;2022-12-28T14:44:00;7.50;99.90
20700;DHT22;10511;51.232;9.420;2022-12-28T14:46:31;7.50;99.90
20700;DHT22;10511;51.232;9.420;2022-12-28T14:48:58;7.50;99.90
20700;DHT22;10511;51.232;9.420;2022-12-28T14:51:28;7.50;99.90
20700;DHT22;10511;51.232;9.420;2022-12-28T14:54:22;7.50;99.90
20700;DHT22;10511;51.232;9.420;2022-12-28T14:56:54;7.50;99.90
20700;DHT22;10511;51.232;9.420;2022-12-28T14:59:25;7.50;99.90
20700;DHT22;10511;51.232;9.420;2022-12-28T15:01:53;7.40;99.90
20700;DHT22;10511;51.232;9.420;2022-12-28T15:04:26;7.50;99.90
20700;DHT22;10511;51.232;9.420;2022-12-28T15:06:53;7.50;99.90
20700;DHT22;10511;51.232;9.420;2022-12-28T15:09:20;7.40;99.90
20700;DHT22;10511;51.232;9.420;2022-12-28T15:11:47;7.40;99.90
20700;DHT22;10511;51.232;9.420;2022-12-28T15:14:15;7.40;99.90
20700;DHT22;10511;51.232;9.420;2022-12-28T15:16:42;7.40;99.90
20700;DHT22;10511;51.232;9.420;2022-12-28T15:19:09;7.40;99.90
20700;DHT22;10511;51.232;9.420;2022-12-28T15:21:36;7.40;99.90
20700;DHT22;10511;51.232;9.420;2022-12-28T15:24:03;7.40;99.90
20700;DHT22;10511;51.232;9.420;2022-12-28T15:26:30;7.40;99.90
20700;DHT22;10511;51.232;9.420;2022-12-28T15:28:56;7.40;99.90
20700;DHT22;10511;51.232;9.420;2022-12-28T15:31:25;7.40;99.90
20700;DHT22;10511;51.232;9.420;2022-12-28T15:33:51;7.40;99.90
20700;DHT22;10511;51.232;9.420;2022-12-28T15:36:20;7.40;99.90
20700;DHT22;10511;51.232;9.420;2022-12-28T15:38:49;7.40;99.90
20700;DHT22;10511;51.232;9.420;2022-12-28T15:41:17;7.40;99.90
20700;DHT22;10511;51.232;9.420;2022-12-28T15:44:01;7.40;99.90
20700;DHT22;10511;51.232;9.420;2022-12-28T15:46:29;7.50;99.90
20700;DHT22;10511;51.232;9.420;2022-12-28T15:48:56;7.40;99.90
20700;DHT22;10511;51.232;9.420;2022-12-28T15:51:23;7.40;99.90
20700;DHT22;10511;51.232;9.420;2022-12-28T15:53:50;7.40;99.90
20700;DHT22;10511;51.232;9.420;2022-12-28T15:56:19;7.40;99.90
20700;DHT22;10511;51.232;9.420;2022-12-28T15:58:46;7.40;99.90
20700;DHT22;10511;51.232;9.420;2022-12-28T16:01:13;7.40;99.90
20700;DHT22;10511;51.232;9.420;2022-12-28T16:03:41;7.40;99.90
20700;DHT22;10511;51.232;9.420;2022-12-28T16:06:08;7.40;99.90
20700;DHT22;10511;51.232;9.420;2022-12-28T16:08:35;7.40;99.90
20700;DHT22;10511;51.232;9.420;2022-12-28T16:11:09;7.40;99.90
20700;DHT22;10511;51.232;9.420;2022-12-28T16:13:36;7.30;99.90
20700;DHT22;10511;51.232;9.420;2022-12-28T16:16:04;7.40;99.90
20700;DHT22;10511;51.232;9.420;2022-12-28T16:18:31;7.30;99.90
20700;DHT22;10511;51.232;9.420;2022-12-28T16:21:00;7.30;99.90